Hanover, New Hampshire
Current Conditions -  °F | °C
As of 8:53 AM on Monday 20 Oct 2014 (Local Time) from KLEB Reporting Station
Few Clouds Few Clouds  
Wind Chill:   Ceiling: Unl
Heat Index:   Visibility: 10mi
Dew Point: -3°   Wind: 0mph
Humidity: 73%   Direction: NA
Pressure: 30.02"   Gusts: NA
Location:  43.7°N, 72.29°W
Report Text: KLEB 201253Z 00000KT 10SM FEW110 01/M03 A3002 RMK AO2 SLP169 T00111033
Loading
Personal Weather Stations






























Interactive Weather Map
Tropical Storm Tracking
New forecast layout! Learn more

10-Day Weather Forecast

Advertisements
Track Severe Weather on mobile